Time;durP1;ratioP1;P1;durP2;ratioP2;P2;SDS_P1;SDS_P2;PMS_P1;PMS_P2;Temp;Humidity;BMP_temperature;BMP_pressure;BME280_temperature;BME280_humidity;BME280_pressure;Samples;Min_cycle;Max_cycle;Signal;HPM_P1;HPM_P2
2022/03/04 00:00:49;;;;;;;18.17;10.40;;;1.70;99.90;;;;;;4874865;29;20128;-78
2022/03/04 00:03:15;;;;;;;14.10;8.80;;;1.70;99.90;;;;;;4873520;29;20721;-78
2022/03/04 00:05:41;;;;;;;10.68;6.47;;;1.70;99.90;;;;;;4875144;29;20045;-78
2022/03/04 00:08:08;;;;;;;13.68;7.82;;;1.60;99.90;;;;;;4871036;29;20048;-79
2022/03/04 00:10:34;;;;;;;;;;;1.60;99.90;;;;;;4873593;29;20044;-79
2022/03/04 00:13:00;;;;;;;17.17;9.18;;;1.60;99.90;;;;;;4858035;29;20022;-79
2022/03/04 00:15:26;;;;;;;16.52;9.38;;;1.50;99.90;;;;;;4873174;29;20048;-78
2022/03/04 00:17:52;;;;;;;14.30;8.32;;;1.60;99.90;;;;;;4873963;29;20052;-78
2022/03/04 00:20:18;;;;;;;13.63;8.13;;;1.50;99.90;;;;;;4869110;29;20049;-78
2022/03/04 00:22:44;;;;;;;15.55;8.75;;;1.50;99.90;;;;;;4870383;29;20087;-78
2022/03/04 00:25:10;;;;;;;12.85;6.75;;;1.50;99.90;;;;;;4873458;29;20486;-79
2022/03/04 00:27:36;;;;;;;;;;;1.50;99.90;;;;;;4838343;29;20093;-78
2022/03/04 00:30:03;;;;;;;16.45;8.75;;;1.50;99.90;;;;;;4872500;29;20597;-78
2022/03/04 00:32:28;;;;;;;;;;;1.40;99.90;;;;;;4857901;29;20522;-78
2022/03/04 00:34:54;;;;;;;15.82;8.80;;;1.40;99.90;;;;;;4857101;29;19928;-78
2022/03/04 00:37:20;;;;;;;14.27;8.70;;;1.40;99.90;;;;;;4873817;29;20112;-79
2022/03/04 00:39:46;;;;;;;16.08;9.20;;;1.40;99.90;;;;;;4857444;29;20053;-78
2022/03/04 00:42:14;;;;;;;16.30;9.55;;;1.40;99.90;;;;;;4874439;29;20049;-78
2022/03/04 00:44:40;;;;;;;14.70;8.60;;;1.30;99.90;;;;;;4872838;29;20033;-78
2022/03/04 00:47:06;;;;;;;15.85;8.80;;;1.30;99.90;;;;;;4873542;29;20278;-79
2022/03/04 00:49:32;;;;;;;18.55;9.95;;;1.30;99.90;;;;;;4874729;29;20049;-79
2022/03/04 00:51:58;;;;;;;19.02;9.23;;;1.30;99.90;;;;;;4881236;29;20055;-79
2022/03/04 00:54:23;;;;;;;14.68;8.35;;;1.30;99.90;;;;;;4880184;29;20084;-79
2022/03/04 00:56:49;;;;;;;15.02;8.77;;;1.20;99.90;;;;;;4860697;29;20243;-79
2022/03/04 00:59:15;;;;;;;15.05;8.40;;;1.20;99.90;;;;;;4875614;29;20143;-79
2022/03/04 01:01:43;;;;;;;14.67;8.93;;;1.20;99.90;;;;;;4875443;29;20090;-78
2022/03/04 01:04:08;;;;;;;17.20;9.93;;;1.20;99.90;;;;;;4876882;29;20293;-79
2022/03/04 01:06:35;;;;;;;17.02;10.20;;;1.10;99.90;;;;;;4860202;29;20037;-79
2022/03/04 01:09:00;;;;;;;16.58;9.82;;;1.20;99.90;;;;;;4874359;29;20037;-79
2022/03/04 01:11:26;;;;;;;19.35;10.18;;;1.10;99.90;;;;;;4875004;29;20549;-79
2022/03/04 01:13:52;;;;;;;16.07;9.10;;;1.10;99.90;;;;;;4860256;29;20056;-79
2022/03/04 01:16:17;;;;;;;17.17;8.55;;;1.00;99.90;;;;;;4875703;29;20376;-79
2022/03/04 01:18:43;;;;;;;15.38;8.80;;;1.00;99.90;;;;;;4862047;29;20128;-79
2022/03/04 01:21:09;;;;;;;15.63;8.63;;;0.90;99.90;;;;;;4875839;29;20484;-78
2022/03/04 01:23:35;;;;;;;14.80;9.35;;;0.90;99.90;;;;;;4874249;29;20093;-79
2022/03/04 01:26:01;;;;;;;14.95;9.23;;;0.90;99.90;;;;;;4873607;29;20068;-79
2022/03/04 01:28:27;;;;;;;14.85;9.38;;;0.80;99.90;;;;;;4860027;29;20037;-79
2022/03/04 01:30:53;;;;;;;16.10;9.73;;;0.80;99.90;;;;;;4862738;29;20119;-79
2022/03/04 01:33:19;;;;;;;14.88;9.23;;;0.80;99.90;;;;;;4875127;29;20459;-78
2022/03/04 01:35:45;;;;;;;14.55;8.70;;;0.80;99.90;;;;;;4862673;29;20049;-79
2022/03/04 01:38:11;;;;;;;20.42;10.65;;;0.70;99.90;;;;;;4875122;29;20104;-78
2022/03/04 01:40:37;;;;;;;18.48;10.13;;;0.70;99.90;;;;;;4863736;29;20045;-78
2022/03/04 01:43:03;;;;;;;19.17;9.75;;;0.70;99.90;;;;;;4875035;29;20052;-78
2022/03/04 01:45:29;;;;;;;20.20;9.82;;;0.60;99.90;;;;;;4859727;29;20037;-78
2022/03/04 01:47:55;;;;;;;15.23;8.38;;;0.60;99.90;;;;;;4876546;29;20052;-78
2022/03/04 01:50:23;;;;;;;15.45;8.65;;;0.60;99.90;;;;;;4874662;29;20088;-77
2022/03/04 01:52:48;;;;;;;18.00;9.90;;;0.50;99.90;;;;;;4875969;29;20053;-78
2022/03/04 01:55:14;;;;;;;17.57;9.50;;;0.50;99.90;;;;;;4862702;29;20072;-78
2022/03/04 01:57:40;;;;;;;18.25;10.57;;;0.50;99.90;;;;;;4877833;29;20469;-78
2022/03/04 02:00:13;;;;;;;18.33;10.82;;;0.50;99.90;;;;;;4879644;29;20044;-78
2022/03/04 02:02:44;;;;;;;20.25;11.63;;;0.50;99.90;;;;;;4861758;29;20092;-79
2022/03/04 02:05:17;;;;;;;22.05;11.85;;;0.60;99.90;;;;;;4874684;29;20041;-79
2022/03/04 02:07:43;;;;;;;21.50;11.55;;;0.50;99.90;;;;;;4875468;29;20049;-78
2022/03/04 02:10:10;;;;;;;18.88;10.82;;;0.50;99.90;;;;;;4874722;29;20133;-79
2022/03/04 02:12:36;;;;;;;;;;;0.40;99.90;;;;;;4861843;29;20052;-79
2022/03/04 02:15:04;;;;;;;19.00;11.00;;;0.40;99.90;;;;;;4874279;29;19983;-78
2022/03/04 02:17:30;;;;;;;17.73;11.05;;;0.40;99.90;;;;;;4874505;29;20207;-78
2022/03/04 02:19:57;;;;;;;21.60;11.98;;;0.40;99.90;;;;;;4875257;29;20119;-79
2022/03/04 02:22:24;;;;;;;19.92;11.82;;;0.40;99.90;;;;;;4888568;29;20137;-78
2022/03/04 02:24:49;;;;;;;21.02;12.70;;;0.40;99.90;;;;;;4874476;29;20041;-78
2022/03/04 02:27:15;;;;;;;22.85;11.80;;;0.40;99.90;;;;;;4874410;29;20137;-78
2022/03/04 02:29:41;;;;;;;23.60;12.90;;;0.40;99.90;;;;;;4874197;29;20034;-78
2022/03/04 02:32:07;;;;;;;24.02;13.10;;;0.30;99.90;;;;;;4887428;29;20415;-78
2022/03/04 02:34:33;;;;;;;23.58;11.95;;;0.30;99.90;;;;;;4875433;29;20194;-78
2022/03/04 02:36:59;;;;;;;23.08;12.48;;;0.20;99.90;;;;;;4875337;29;20556;-78
2022/03/04 02:39:25;;;;;;;23.42;12.30;;;0.20;99.90;;;;;;4875117;29;20099;-79
2022/03/04 02:41:51;;;;;;;21.92;12.20;;;0.30;99.90;;;;;;4852243;29;20042;-79
2022/03/04 02:44:17;;;;;;;19.95;11.35;;;0.30;99.90;;;;;;4874859;29;20175;-78
2022/03/04 02:46:43;;;;;;;21.73;12.57;;;0.20;99.90;;;;;;4852209;29;20167;-78
2022/03/04 02:49:10;;;;;;;18.92;11.23;;;0.20;99.90;;;;;;4859788;29;20381;-78
2022/03/04 02:51:36;;;;;;;23.85;12.55;;;0.10;99.90;;;;;;4874641;29;20055;-78
2022/03/04 02:54:03;;;;;;;21.70;12.25;;;0.10;99.90;;;;;;4873281;29;20533;-79
2022/03/04 02:56:29;;;;;;;19.88;11.50;;;0.10;99.90;;;;;;4874878;29;20037;-79
2022/03/04 02:58:54;;;;;;;20.65;10.52;;;0.10;99.90;;;;;;4875589;29;20327;-78
2022/03/04 03:01:20;;;;;;;23.97;11.70;;;0.00;99.90;;;;;;4855505;29;20057;-78
2022/03/04 03:03:46;;;;;;;20.52;10.98;;;-0.10;99.90;;;;;;4844485;29;20417;-79
2022/03/04 03:06:12;;;;;;;19.30;10.95;;;-0.10;99.90;;;;;;4858484;29;20491;-79
2022/03/04 03:08:38;;;;;;;19.30;9.80;;;-0.10;99.90;;;;;;4874880;29;20131;-79
2022/03/04 03:11:04;;;;;;;17.73;9.40;;;-0.10;99.90;;;;;;4873465;29;20049;-79
2022/03/04 03:13:31;;;;;;;21.38;11.23;;;-0.20;99.90;;;;;;4858127;29;20052;-79
2022/03/04 03:15:57;;;;;;;23.58;12.10;;;-0.20;99.90;;;;;;4857671;29;20177;-79
2022/03/04 03:18:22;;;;;;;20.65;11.05;;;-0.20;99.90;;;;;;4872444;29;20127;-79
2022/03/04 03:20:48;;;;;;;19.87;11.47;;;-0.30;99.90;;;;;;4869367;29;20044;-78
2022/03/04 03:23:14;;;;;;;18.95;10.35;;;-0.30;99.90;;;;;;4872913;29;20318;-77
2022/03/04 03:25:40;;;;;;;17.20;9.57;;;-0.20;99.90;;;;;;4857981;29;20106;-79
2022/03/04 03:28:07;;;;;;;23.73;11.68;;;-0.30;99.90;;;;;;4858883;29;20417;-78
2022/03/04 03:30:33;;;;;;;19.42;10.38;;;-0.30;99.90;;;;;;4871460;29;20406;-78
2022/03/04 03:32:58;;;;;;;16.50;8.70;;;-0.40;99.90;;;;;;4874236;29;20049;-78
2022/03/04 03:35:24;;;;;;;20.15;11.35;;;-0.30;99.90;;;;;;4859133;29;20053;-78
2022/03/04 03:37:50;;;;;;;22.20;11.65;;;-0.40;99.90;;;;;;4833736;29;20465;-78
2022/03/04 03:40:16;;;;;;;20.70;11.80;;;-0.30;99.90;;;;;;4858726;29;20043;-78
2022/03/04 03:42:42;;;;;;;19.35;11.57;;;-0.30;99.90;;;;;;4856699;29;20060;-78
2022/03/04 03:45:10;;;;;;;21.60;11.65;;;-0.40;99.90;;;;;;4824091;29;20041;-78
2022/03/04 03:47:38;;;;;;;22.50;11.68;;;-0.30;99.90;;;;;;4859848;29;20349;-78
2022/03/04 03:50:06;;;;;;;21.98;11.20;;;-0.40;99.90;;;;;;4843905;29;20051;-78
2022/03/04 03:52:32;;;;;;;19.77;11.27;;;-0.40;99.90;;;;;;4846134;29;20053;-78
2022/03/04 03:54:58;;;;;;;19.75;10.70;;;-0.40;99.90;;;;;;4857812;29;20082;-79
2022/03/04 03:57:25;;;;;;;18.38;10.20;;;-0.50;99.90;;;;;;4859047;29;20049;-79
2022/03/04 03:59:51;;;;;;;20.65;10.70;;;-0.50;99.90;;;;;;4858337;29;20061;-79
2022/03/04 04:02:17;;;;;;;22.33;12.25;;;-0.60;99.90;;;;;;4856040;29;20045;-79
2022/03/04 04:04:44;;;;;;;19.52;11.15;;;-0.60;99.90;;;;;;4872787;29;20362;-79
2022/03/04 04:07:12;;;;;;;21.73;11.73;;;-0.60;99.90;;;;;;4840846;29;20049;-78
2022/03/04 04:09:38;;;;;;;23.65;11.77;;;-0.60;99.90;;;;;;4862276;29;20359;-78
2022/03/04 04:12:04;;;;;;;22.65;11.77;;;-0.60;99.90;;;;;;4842720;29;20048;-77
2022/03/04 04:14:30;;;;;;;22.75;13.23;;;-0.60;99.90;;;;;;4851447;29;20052;-78
2022/03/04 04:16:56;;;;;;;20.13;11.90;;;-0.60;99.90;;;;;;4856318;29;20046;-79
2022/03/04 04:19:23;;;;;;;23.75;12.15;;;-0.70;99.90;;;;;;4858714;29;20044;-79
2022/03/04 04:21:49;;;;;;;24.55;12.88;;;-0.70;99.90;;;;;;4853432;29;20102;-79
2022/03/04 04:24:16;;;;;;;25.70;13.25;;;-0.70;99.90;;;;;;4856014;29;20074;-78
2022/03/04 04:26:42;;;;;;;26.00;13.90;;;-0.70;99.90;;;;;;4862950;29;20075;-78
2022/03/04 04:29:08;;;;;;;25.80;12.82;;;-0.80;99.90;;;;;;4866459;29;20045;-78
2022/03/04 04:31:33;;;;;;;24.30;13.88;;;-0.70;99.90;;;;;;4859343;29;20460;-79
2022/03/04 04:34:01;;;;;;;28.48;14.50;;;-0.70;99.90;;;;;;4864482;29;20414;-77
2022/03/04 04:36:27;;;;;;;29.60;15.70;;;-0.80;99.90;;;;;;4877532;29;20457;-78
2022/03/04 04:38:52;;;;;;;;;;;-0.80;99.90;;;;;;4862815;29;20141;-78
2022/03/04 04:41:18;;;;;;;27.77;14.57;;;-0.70;99.90;;;;;;4875083;29;20550;-78
2022/03/04 04:43:44;;;;;;;26.08;13.13;;;-0.80;99.90;;;;;;4845414;29;20460;-79
2022/03/04 04:46:10;;;;;;;29.00;15.43;;;-0.80;99.90;;;;;;4880722;29;20430;-78
2022/03/04 04:48:37;;;;;;;27.45;14.25;;;-0.80;99.90;;;;;;4858660;29;20049;-78
2022/03/04 04:51:03;;;;;;;23.85;12.88;;;-0.80;99.90;;;;;;4875131;29;20120;-78
2022/03/04 04:53:30;;;;;;;23.88;12.73;;;-0.80;99.90;;;;;;4877424;29;20085;-79
2022/03/04 04:55:56;;;;;;;27.65;15.07;;;-0.80;99.90;;;;;;4846198;29;20049;-78
2022/03/04 04:58:22;;;;;;;24.27;13.15;;;-0.80;99.90;;;;;;4861393;29;20408;-79
2022/03/04 05:00:53;;;;;;;26.63;14.20;;;-0.70;99.90;;;;;;4856566;29;20049;-78
2022/03/04 05:03:23;;;;;;;26.15;14.35;;;-0.70;99.90;;;;;;4859592;29;20048;-79
2022/03/04 05:05:48;;;;;;;26.55;14.10;;;-0.80;99.90;;;;;;4861531;29;20037;-78
2022/03/04 05:08:15;;;;;;;30.67;15.70;;;-0.70;99.90;;;;;;4876373;29;20037;-78
2022/03/04 05:10:42;;;;;;;27.38;15.73;;;-0.70;99.90;;;;;;4876784;29;20128;-78
2022/03/04 05:13:07;;;;;;;31.30;16.08;;;-0.70;99.90;;;;;;4861880;29;20049;-78
2022/03/04 05:15:33;;;;;;;29.27;14.55;;;-0.70;99.90;;;;;;4863310;29;20392;-79
2022/03/04 05:17:59;;;;;;;28.52;14.50;;;-0.70;99.90;;;;;;4860570;29;20098;-78
2022/03/04 05:20:26;;;;;;;27.67;15.15;;;-0.70;99.90;;;;;;4876758;29;20057;-78
2022/03/04 05:22:51;;;;;;;30.25;15.18;;;-0.70;99.90;;;;;;4861424;29;20055;-78
2022/03/04 05:25:17;;;;;;;26.83;14.30;;;-0.70;99.90;;;;;;4861515;29;20119;-78
2022/03/04 05:27:43;;;;;;;30.00;15.73;;;-0.60;99.90;;;;;;4867508;29;20059;-77
2022/03/04 05:30:09;;;;;;;27.07;15.60;;;-0.60;99.90;;;;;;4880708;29;20298;-79
2022/03/04 05:32:35;;;;;;;26.50;14.40;;;-0.60;99.90;;;;;;4879841;29;20368;-77
2022/03/04 05:35:01;;;;;;;26.08;14.52;;;-0.60;99.90;;;;;;4877138;29;20140;-77
2022/03/04 05:37:26;;;;;;;25.58;13.07;;;-0.60;99.90;;;;;;4845581;29;20045;-77
2022/03/04 05:39:52;;;;;;;24.47;13.80;;;-0.60;99.90;;;;;;4858083;29;20041;-77
2022/03/04 05:42:18;;;;;;;27.23;15.30;;;-0.50;99.90;;;;;;4843843;29;20306;-79
2022/03/04 05:44:44;;;;;;;;;;;-0.60;99.90;;;;;;4845582;29;20297;-78
2022/03/04 05:47:10;;;;;;;27.67;13.50;;;-0.60;99.90;;;;;;4857309;29;19927;-77
2022/03/04 05:49:36;;;;;;;26.50;14.70;;;-0.60;99.90;;;;;;4845584;29;20040;-77
2022/03/04 05:52:03;;;;;;;26.80;14.43;;;-0.60;99.90;;;;;;4851636;29;20040;-79
2022/03/04 05:54:28;;;;;;;27.00;15.52;;;-0.60;99.90;;;;;;4843813;29;20100;-78
2022/03/04 05:56:54;;;;;;;30.20;15.75;;;-0.70;99.90;;;;;;4863254;29;20139;-78
2022/03/04 05:59:20;;;;;;;28.08;14.60;;;-0.70;99.90;;;;;;4846065;29;20853;-78
2022/03/04 06:01:46;;;;;;;27.05;15.18;;;-0.70;99.90;;;;;;4857432;29;20045;-78
2022/03/04 06:04:11;;;;;;;30.50;16.30;;;-0.70;99.90;;;;;;4843209;29;20041;-78
2022/03/04 06:06:37;;;;;;;23.97;12.77;;;-0.80;99.90;;;;;;4834390;29;20120;-78
2022/03/04 06:09:03;;;;;;;28.60;15.00;;;-0.70;99.90;;;;;;4857312;29;20053;-78
2022/03/04 06:11:29;;;;;;;29.75;16.25;;;-0.70;99.90;;;;;;4845008;29;20097;-79
2022/03/04 06:13:54;;;;;;;28.48;15.02;;;-0.70;99.90;;;;;;4857691;29;20521;-78
2022/03/04 06:16:20;;;;;;;29.48;17.17;;;-0.70;99.90;;;;;;4873871;29;20047;-79
2022/03/04 06:18:46;;;;;;;29.50;15.47;;;-0.70;99.90;;;;;;4859641;29;20049;-79
2022/03/04 06:21:12;;;;;;;25.60;14.57;;;-0.70;99.90;;;;;;4857305;29;20457;-78
2022/03/04 06:23:39;;;;;;;29.83;16.20;;;-0.70;99.90;;;;;;4830032;29;20104;-78
2022/03/04 06:26:04;;;;;;;;;;;-0.60;99.90;;;;;;4859969;29;20101;-78
2022/03/04 06:28:30;;;;;;;27.35;15.40;;;-0.60;99.90;;;;;;4857542;29;19967;-78
2022/03/04 06:30:56;;;;;;;28.10;16.35;;;-0.70;99.90;;;;;;4859903;29;20045;-78
2022/03/04 06:33:30;;;;;;;31.00;16.90;;;-0.60;99.90;;;;;;4861333;29;20136;-78
2022/03/04 06:36:10;;;;;;;26.67;15.35;;;-0.60;99.90;;;;;;4875537;29;20049;-78
2022/03/04 06:38:41;;;;;;;24.95;14.52;;;-0.60;99.90;;;;;;4873174;29;20505;-78
2022/03/04 06:41:08;;;;;;;29.45;16.50;;;-0.60;99.90;;;;;;4875794;29;20077;-78
2022/03/04 06:43:34;;;;;;;23.58;14.50;;;-0.50;99.90;;;;;;4859486;29;20045;-78
2022/03/04 06:46:00;;;;;;;28.08;15.57;;;-0.50;99.90;;;;;;4855930;29;20050;-77
2022/03/04 06:48:26;;;;;;;26.58;15.77;;;-0.40;99.90;;;;;;4877491;29;20034;-78
2022/03/04 06:50:53;;;;;;;;;;;-0.40;99.90;;;;;;4884114;29;20059;-78
2022/03/04 06:53:19;;;;;;;26.02;15.27;;;-0.40;99.90;;;;;;4871969;29;20063;-78
2022/03/04 06:55:46;;;;;;;26.90;15.63;;;-0.40;99.90;;;;;;4860946;29;20101;-78
2022/03/04 06:58:12;;;;;;;27.52;15.40;;;-0.40;99.90;;;;;;4864676;29;20151;-77
2022/03/04 07:00:39;;;;;;;28.02;15.07;;;-0.40;99.90;;;;;;4872357;29;20057;-77
2022/03/04 07:03:05;;;;;;;26.30;14.88;;;-0.40;99.90;;;;;;4859863;29;20460;-77
2022/03/04 07:05:31;;;;;;;28.83;17.42;;;-0.40;99.90;;;;;;4875575;29;20041;-77
2022/03/04 07:07:57;;;;;;;25.80;14.95;;;-0.40;99.90;;;;;;4859146;29;20438;-78
2022/03/04 07:10:23;;;;;;;22.98;13.98;;;-0.40;99.90;;;;;;4869388;29;20041;-78
2022/03/04 07:12:50;;;;;;;23.13;13.85;;;-0.30;99.90;;;;;;4875220;29;20057;-78
2022/03/04 07:15:15;;;;;;;;;;;-0.40;99.90;;;;;;4871895;29;20521;-78
2022/03/04 07:17:41;;;;;;;27.75;15.80;;;-0.40;99.90;;;;;;4870865;29;19928;-78
2022/03/04 07:20:08;;;;;;;26.42;14.77;;;-0.30;99.90;;;;;;4845515;29;20515;-77
2022/03/04 07:22:35;;;;;;;25.92;15.50;;;-0.40;99.90;;;;;;4879717;29;20052;-78
2022/03/04 07:25:06;;;;;;;27.20;16.02;;;-0.30;99.90;;;;;;4859429;29;20052;-78
2022/03/04 07:27:36;;;;;;;26.83;15.27;;;-0.30;99.90;;;;;;4838742;29;20046;-78
2022/03/04 07:30:07;;;;;;;24.65;14.50;;;-0.30;99.90;;;;;;4875797;29;20255;-77
2022/03/04 07:32:33;;;;;;;27.73;15.82;;;-0.20;99.90;;;;;;4875387;29;20072;-78
2022/03/04 07:34:59;;;;;;;27.55;15.38;;;-0.20;99.90;;;;;;4858394;29;20096;-75
2022/03/04 07:37:25;;;;;;;24.60;14.38;;;-0.20;99.90;;;;;;4873490;29;20080;-75
2022/03/04 07:39:51;;;;;;;23.42;14.18;;;-0.20;99.90;;;;;;4873897;29;20104;-75
2022/03/04 07:42:16;;;;;;;24.10;13.95;;;-0.20;99.90;;;;;;4880387;29;20056;-74
2022/03/04 07:44:42;;;;;;;22.37;13.60;;;-0.10;99.90;;;;;;4878725;29;20128;-75
2022/03/04 07:47:08;;;;;;;24.20;12.70;;;-0.10;99.90;;;;;;4872851;29;20071;-74
2022/03/04 07:49:34;;;;;;;22.33;13.52;;;-0.10;99.90;;;;;;4872498;29;20048;-74
2022/03/04 07:52:00;;;;;;;27.13;15.30;;;0.00;99.90;;;;;;4858366;29;20045;-75
2022/03/04 07:54:25;;;;;;;25.00;15.05;;;0.10;99.90;;;;;;4873848;29;20045;-75
2022/03/04 07:56:52;;;;;;;27.15;15.75;;;0.00;99.90;;;;;;4866189;29;20084;-74
2022/03/04 07:59:18;;;;;;;;;;;0.00;99.90;;;;;;4886643;29;20128;-75
2022/03/04 08:01:44;;;;;;;26.65;15.15;;;0.00;99.90;;;;;;4877706;29;19934;-75
2022/03/04 08:04:11;;;;;;;22.83;14.63;;;-0.10;99.90;;;;;;4839813;29;20037;-75
2022/03/04 08:06:39;;;;;;;24.67;15.05;;;0.00;99.90;;;;;;4874190;29;20050;-75
2022/03/04 08:09:05;;;;;;;26.13;15.05;;;0.10;99.90;;;;;;4874783;29;20045;-75
2022/03/04 08:11:31;;;;;;;26.10;14.65;;;0.10;99.90;;;;;;4876907;29;20057;-75
2022/03/04 08:13:57;;;;;;;23.07;14.07;;;0.00;99.90;;;;;;4875956;29;20049;-76
2022/03/04 08:16:24;;;;;;;14.75;9.65;;;0.10;99.90;;;;;;4877866;29;20380;-76
2022/03/04 08:18:50;;;;;;;22.27;13.60;;;0.20;99.90;;;;;;4876917;29;20049;-76
2022/03/04 08:21:17;;;;;;;23.83;14.00;;;0.20;99.90;;;;;;4862023;29;20041;-77
2022/03/04 08:23:43;;;;;;;24.63;14.38;;;0.30;99.90;;;;;;4878595;29;20046;-77
2022/03/04 08:26:09;;;;;;;22.57;13.63;;;0.30;99.90;;;;;;4861711;29;20175;-77
2022/03/04 08:28:35;;;;;;;24.63;15.48;;;0.50;99.90;;;;;;4874649;29;20869;-77
2022/03/04 08:31:03;;;;;;;22.85;13.23;;;0.50;99.90;;;;;;4860848;29;20123;-78
2022/03/04 08:33:29;;;;;;;22.00;14.20;;;0.50;99.90;;;;;;4877996;29;20068;-77
2022/03/04 08:35:54;;;;;;;20.38;13.60;;;0.70;99.90;;;;;;4861711;29;20036;-76
2022/03/04 08:38:20;;;;;;;21.70;14.02;;;0.70;99.90;;;;;;4861860;29;20041;-77
2022/03/04 08:40:46;;;;;;;20.80;13.13;;;0.70;99.90;;;;;;4862221;29;20059;-78
2022/03/04 08:43:13;;;;;;;20.05;12.52;;;0.80;99.90;;;;;;4866129;29;20067;-77
2022/03/04 08:45:38;;;;;;;21.85;14.02;;;0.90;99.90;;;;;;4880917;29;20077;-77
2022/03/04 08:48:06;;;;;;;21.10;12.60;;;1.00;99.90;;;;;;4863011;29;20434;-76
2022/03/04 08:50:35;;;;;;;20.63;12.65;;;1.10;99.90;;;;;;4861387;29;20286;-76
2022/03/04 08:53:01;;;;;;;21.40;14.27;;;1.20;99.90;;;;;;4834178;29;20144;-76
2022/03/04 08:55:30;;;;;;;21.05;12.98;;;1.20;99.90;;;;;;4868306;29;20029;-76
2022/03/04 08:57:57;;;;;;;16.10;11.05;;;1.20;99.90;;;;;;4874298;29;20061;-76
2022/03/04 09:00:24;;;;;;;24.13;14.65;;;1.30;99.90;;;;;;4876335;29;20048;-76
2022/03/04 09:02:50;;;;;;;21.25;13.35;;;1.30;99.90;;;;;;4875485;29;20037;-76
2022/03/04 09:05:17;;;;;;;21.25;13.77;;;1.40;99.90;;;;;;4873793;29;20547;-76
2022/03/04 09:07:43;;;;;;;23.90;13.68;;;1.50;99.90;;;;;;4860694;29;20401;-75
2022/03/04 09:10:09;;;;;;;19.35;13.02;;;1.40;99.90;;;;;;4877426;29;20053;-75
2022/03/04 09:12:35;;;;;;;19.67;13.18;;;1.50;99.90;;;;;;4874778;29;20057;-75
2022/03/04 09:15:02;;;;;;;21.13;13.13;;;1.40;99.90;;;;;;4861208;29;20037;-73
2022/03/04 09:17:28;;;;;;;20.75;12.95;;;1.20;99.90;;;;;;4861282;29;20160;-75
2022/03/04 09:19:54;;;;;;;17.73;11.98;;;1.20;99.90;;;;;;4874095;29;20139;-75
2022/03/04 09:22:20;;;;;;;20.52;13.52;;;1.20;99.90;;;;;;4876811;29;20041;-74
2022/03/04 09:24:48;;;;;;;20.20;12.40;;;1.00;99.90;;;;;;4861842;29;20129;-75
2022/03/04 09:27:14;;;;;;;20.35;13.07;;;1.10;99.90;;;;;;4875508;29;20122;-73
2022/03/04 09:29:40;;;;;;;19.08;13.23;;;1.10;99.90;;;;;;4873242;29;20080;-75
2022/03/04 09:32:06;;;;;;;21.45;13.07;;;1.20;99.90;;;;;;4865732;29;20132;-75
2022/03/04 09:34:32;;;;;;;22.27;13.15;;;1.20;99.90;;;;;;4873273;29;20085;-74
2022/03/04 09:36:58;;;;;;;21.40;13.45;;;1.30;99.90;;;;;;4876265;29;20079;-74
2022/03/04 09:39:24;;;;;;;20.75;12.90;;;1.40;99.90;;;;;;4877389;29;20079;-74
2022/03/04 09:41:50;;;;;;;20.88;13.50;;;1.40;99.90;;;;;;4873038;29;20390;-73
2022/03/04 09:44:16;;;;;;;20.90;13.65;;;1.40;99.90;;;;;;4879018;29;20052;-74
2022/03/04 09:46:43;;;;;;;19.90;13.13;;;1.50;99.90;;;;;;4864182;29;20117;-74
2022/03/04 09:49:09;;;;;;;21.20;14.18;;;1.60;99.90;;;;;;4863920;29;20041;-76
2022/03/04 09:51:35;;;;;;;;;;;1.60;99.90;;;;;;4873312;29;20498;-74
2022/03/04 09:54:02;;;;;;;25.75;14.38;;;1.70;99.90;;;;;;4872559;29;19927;-75
2022/03/04 09:56:27;;;;;;;23.65;13.02;;;1.70;99.90;;;;;;4877075;29;20462;-74
2022/03/04 09:58:53;;;;;;;22.27;14.88;;;1.80;99.90;;;;;;4867616;29;20084;-75
2022/03/04 10:01:19;;;;;;;22.33;14.23;;;1.80;99.90;;;;;;4872540;29;20139;-75
2022/03/04 10:03:50;;;;;;;21.42;14.07;;;1.90;99.90;;;;;;4876086;29;20047;-75
2022/03/04 10:06:18;;;;;;;21.55;13.90;;;2.10;99.90;;;;;;4872586;29;20046;-75
2022/03/04 10:08:52;;;;;;;19.60;13.35;;;2.20;99.90;;;;;;4867217;29;20044;-75
2022/03/04 10:11:33;;;;;;;20.98;13.70;;;2.20;99.90;;;;;;4857487;29;20057;-75
2022/03/04 10:14:00;;;;;;;17.92;12.45;;;2.30;99.90;;;;;;4872719;29;20045;-76
2022/03/04 10:16:31;;;;;;;20.40;13.27;;;2.40;99.90;;;;;;4893916;29;20041;-74
2022/03/04 10:19:11;;;;;;;21.13;12.60;;;2.50;99.90;;;;;;4875652;29;20048;-75
2022/03/04 10:21:58;;;;;;;19.23;12.80;;;2.60;99.90;;;;;;4860279;29;20057;-78
2022/03/04 10:24:42;;;;;;;19.00;12.55;;;2.90;99.90;;;;;;4875229;29;20041;-79
2022/03/04 10:27:16;;;;;;;21.38;13.52;;;3.00;99.90;;;;;;4879828;29;20044;-79
2022/03/04 10:29:47;;;;;;;18.80;12.98;;;3.10;99.90;;;;;;4873516;29;20065;-78
2022/03/04 10:32:22;;;;;;;21.50;13.13;;;3.10;99.90;;;;;;4873905;29;20450;-80
2022/03/04 10:35:00;;;;;;;19.67;13.23;;;3.20;99.90;;;;;;4854827;29;20096;-78
2022/03/04 10:37:51;;;;;;;18.58;12.90;;;3.30;99.90;;;;;;4875159;29;20057;-78
2022/03/04 10:40:20;;;;;;;17.48;12.20;;;3.40;99.90;;;;;;4872295;29;20522;-78
2022/03/04 10:42:47;;;;;;;17.98;12.30;;;3.60;99.90;;;;;;4882046;29;20515;-76
2022/03/04 10:45:40;;;;;;;16.08;11.52;;;3.80;99.90;;;;;;4866800;29;20045;-76
2022/03/04 10:48:18;;;;;;;16.05;11.23;;;3.80;99.90;;;;;;4861913;29;20074;-75
2022/03/04 10:50:52;;;;;;;20.42;12.48;;;3.80;99.90;;;;;;4865793;29;20060;-76
2022/03/04 10:53:32;;;;;;;17.30;11.77;;;3.90;99.90;;;;;;4859235;29;20947;-75
2022/03/04 10:55:58;;;;;;;16.75;11.48;;;4.20;99.90;;;;;;4859068;29;20160;-75
2022/03/04 10:58:25;;;;;;;;;;;4.50;99.90;;;;;;4880667;29;20081;-75
2022/03/04 11:01:00;;;;;;;12.93;9.52;;;4.80;99.90;;;;;;4861156;29;19973;-75
2022/03/04 11:03:34;;;;;;;16.95;12.00;;;5.30;99.90;;;;;;4875632;29;20342;-74
2022/03/04 11:06:02;;;;;;;15.32;11.52;;;5.50;99.90;;;;;;4859215;29;20140;-74
2022/03/04 11:08:28;;;;;;;16.15;11.05;;;5.70;99.90;;;;;;4875092;29;20068;-74
2022/03/04 11:10:56;;;;;;;14.55;10.93;;;5.90;99.90;;;;;;4878793;29;20533;-75
2022/03/04 11:13:22;;;;;;;15.55;11.38;;;6.00;99.90;;;;;;4859626;29;20048;-74
2022/03/04 11:15:49;;;;;;;14.45;10.40;;;6.10;99.90;;;;;;4861028;29;20037;-75
2022/03/04 11:18:20;;;;;;;15.98;11.15;;;6.30;99.90;;;;;;4874593;29;20552;-75
2022/03/04 11:20:48;;;;;;;14.05;10.48;;;6.40;99.90;;;;;;4875245;29;20076;-74
2022/03/04 11:23:20;;;;;;;15.27;11.13;;;6.50;99.90;;;;;;4874278;29;20048;-79
2022/03/04 11:25:53;;;;;;;13.02;10.27;;;6.60;99.90;;;;;;4859305;29;20068;-80
2022/03/04 11:28:20;;;;;;;14.07;10.50;;;6.80;99.90;;;;;;4875123;29;20402;-80
2022/03/04 11:30:51;;;;;;;15.07;10.75;;;7.00;99.90;;;;;;4877863;29;20078;-79
2022/03/04 11:33:19;;;;;;;14.48;10.18;;;7.00;99.90;;;;;;4851660;29;20044;-79
2022/03/04 11:35:50;;;;;;;14.95;10.82;;;7.00;99.90;;;;;;4864498;29;20139;-79
2022/03/04 11:38:46;;;;;;;14.30;10.38;;;7.30;99.90;;;;;;4858243;29;20401;-80
2022/03/04 11:41:17;;;;;;;13.00;9.90;;;7.70;99.90;;;;;;4853343;29;20403;-79
2022/03/04 11:43:53;;;;;;;13.95;10.23;;;8.10;99.90;;;;;;4843165;29;20049;-78
2022/03/04 11:46:19;;;;;;;14.35;10.68;;;8.40;99.90;;;;;;4861476;29;20181;-79
2022/03/04 11:48:46;;;;;;;13.68;10.10;;;8.50;99.90;;;;;;4856544;29;20113;-79
2022/03/04 11:51:17;;;;;;;13.60;10.02;;;8.50;99.90;;;;;;4858610;29;20049;-79
2022/03/04 11:53:43;;;;;;;12.98;9.52;;;8.60;99.90;;;;;;4844378;29;20501;-79
2022/03/04 11:56:12;;;;;;;14.02;9.85;;;8.60;99.90;;;;;;4848077;29;20080;-80
2022/03/04 11:58:56;;;;;;;13.65;10.10;;;8.50;99.90;;;;;;4843257;29;20092;-79
2022/03/04 12:01:36;;;;;;;15.75;11.27;;;8.30;99.90;;;;;;4858494;29;20460;-79
2022/03/04 12:04:14;;;;;;;14.52;9.88;;;8.40;99.90;;;;;;4855791;29;20046;-79
2022/03/04 12:06:41;;;;;;;14.75;10.80;;;8.40;99.90;;;;;;4839519;29;20509;-80
2022/03/04 12:09:29;;;;;;;14.02;10.18;;;8.50;99.90;;;;;;4864415;29;20055;-79
2022/03/04 12:12:20;;;;;;;12.55;10.15;;;8.40;99.90;;;;;;4843411;29;20505;-79
2022/03/04 12:14:47;;;;;;;13.43;9.77;;;8.60;99.90;;;;;;4847511;29;20091;-81
2022/03/04 12:17:13;;;;;;;16.33;10.65;;;8.70;99.90;;;;;;4858508;29;20104;-79
2022/03/04 12:19:39;;;;;;;16.70;11.55;;;8.80;99.90;;;;;;4860374;29;20041;-73
2022/03/04 12:22:06;;;;;;;14.48;11.23;;;8.70;99.80;;;;;;4841465;29;20060;-74
2022/03/04 12:24:35;;;;;;;16.88;11.00;;;8.70;99.90;;;;;;4858518;29;20057;-73
2022/03/04 12:27:02;;;;;;;12.75;10.18;;;8.80;99.90;;;;;;4871424;29;20127;-73
2022/03/04 12:29:45;;;;;;;16.15;12.52;;;8.90;99.90;;;;;;4861279;29;20315;-72
2022/03/04 12:32:12;;;;;;;19.20;12.25;;;8.80;99.70;;;;;;4848609;29;20414;-79
2022/03/04 12:34:50;;;;;;;17.58;12.52;;;8.80;99.80;;;;;;4852235;29;20531;-80
2022/03/04 12:37:16;;;;;;;14.77;11.35;;;8.90;99.90;;;;;;4874130;29;20105;-80
2022/03/04 12:39:46;;;;;;;16.73;11.73;;;9.10;99.90;;;;;;4859050;29;20084;-79